createdAt,value
2022-12-17T00:01:07.395Z,101229.50
2022-12-17T00:03:53.245Z,101228.63
2022-12-17T00:06:42.139Z,101227.75
2022-12-17T00:09:26.737Z,101234.72
2022-12-17T00:12:11.664Z,101232.09
2022-12-17T00:14:56.384Z,101234.69
2022-12-17T00:17:41.280Z,101236.44
2022-12-17T00:20:26.574Z,101234.69
2022-12-17T00:23:22.971Z,101232.09
2022-12-17T00:26:12.375Z,101243.31
2022-12-17T00:29:11.760Z,101254.59
2022-12-17T00:31:56.647Z,101250.28
2022-12-17T00:34:41.816Z,101255.47
2022-12-17T00:37:26.646Z,101261.56
2022-12-17T00:40:11.282Z,101265.03
2022-12-17T00:42:56.286Z,101263.28
2022-12-17T00:45:41.471Z,101266.72
2022-12-17T00:48:26.301Z,101266.72
2022-12-17T00:51:11.090Z,101266.69
2022-12-17T00:53:55.830Z,101258.00
2022-12-17T00:56:40.656Z,101268.38
2022-12-17T00:59:27.244Z,101271.00
2022-12-17T01:02:17.050Z,101276.16
2022-12-17T01:05:01.889Z,101268.38
2022-12-17T01:07:46.543Z,101261.38
2022-12-17T01:10:31.306Z,101268.34
2022-12-17T01:13:16.030Z,101273.41
2022-12-17T01:16:00.969Z,101282.13
2022-12-17T01:18:45.986Z,101283.81
2022-12-17T01:21:30.718Z,101294.25
2022-12-17T01:24:15.617Z,101296.84
2022-12-17T01:27:00.406Z,101302.94
2022-12-17T01:29:49.716Z,101303.69
2022-12-17T01:32:35.077Z,101309.75
2022-12-17T01:35:19.730Z,101296.75
2022-12-17T01:38:04.903Z,101304.59
2022-12-17T01:40:49.537Z,101314.94
2022-12-17T01:43:50.851Z,101317.53
2022-12-17T01:46:36.596Z,101320.16
2022-12-17T01:49:21.372Z,101324.50
2022-12-17T01:52:10.463Z,101326.94
2022-12-17T01:54:56.760Z,101324.41
2022-12-17T01:57:44.165Z,101333.97
2022-12-17T02:00:33.124Z,101332.25
2022-12-17T02:03:18.547Z,101337.34
2022-12-17T02:06:16.120Z,101340.84
2022-12-17T02:09:23.038Z,101345.94
2022-12-17T02:12:20.419Z,101348.63
2022-12-17T02:15:18.004Z,101335.50
2022-12-17T02:18:09.747Z,101347.53
2022-12-17T02:21:05.668Z,101352.84
2022-12-17T02:24:18.592Z,101359.72
2022-12-17T02:27:06.552Z,101352.66
2022-12-17T02:36:39.547Z,101373.63
2022-12-17T02:39:24.350Z,101364.09
2022-12-17T02:42:14.862Z,101364.03
2022-12-17T02:45:01.320Z,101369.25
2022-12-17T02:47:47.586Z,101367.53
2022-12-17T02:50:33.388Z,101358.88
2022-12-17T02:53:19.393Z,101368.31
2022-12-17T02:56:04.223Z,101371.63
2022-12-17T02:58:49.064Z,101375.13
2022-12-17T03:01:34.446Z,101374.19
2022-12-17T03:04:19.631Z,101375.94
2022-12-17T03:07:04.439Z,101370.66
2022-12-17T03:09:49.223Z,101372.38
2022-12-17T03:12:34.073Z,101375.06
2022-12-17T03:15:18.843Z,101378.59
2022-12-17T03:18:03.711Z,101381.19
2022-12-17T03:20:48.459Z,101395.03
2022-12-17T03:23:34.228Z,101393.38
2022-12-17T03:26:21.802Z,101393.44
2022-12-17T03:29:06.953Z,101394.31
2022-12-17T03:31:52.270Z,101400.38
2022-12-17T03:34:36.939Z,101399.50
2022-12-17T03:37:21.737Z,101402.09
2022-12-17T03:40:06.481Z,101407.28
2022-12-17T03:42:51.326Z,101408.97
2022-12-17T03:45:36.649Z,101407.22
2022-12-17T03:48:26.450Z,101408.94
2022-12-17T03:51:12.231Z,101414.16
2022-12-17T03:53:57.501Z,101409.88
2022-12-17T03:56:42.892Z,101409.88
2022-12-17T03:59:28.754Z,101397.69
2022-12-17T04:02:14.097Z,101407.34
2022-12-17T04:04:59.460Z,101403.88
2022-12-17T04:07:44.224Z,101405.56
2022-12-17T04:10:29.364Z,101402.13
2022-12-17T04:13:14.090Z,101415.06
2022-12-17T04:15:58.868Z,101421.13
2022-12-17T04:18:43.818Z,101430.56
2022-12-17T04:21:28.976Z,101424.44
2022-12-17T04:24:13.642Z,101431.41
2022-12-17T04:26:58.903Z,101433.09
2022-12-17T04:29:44.172Z,101432.28
2022-12-17T04:32:33.666Z,101437.41
2022-12-17T04:35:20.435Z,101429.63
2022-12-17T04:38:05.766Z,101436.63
2022-12-17T04:40:50.565Z,101439.25
2022-12-17T04:43:35.632Z,101438.97
2022-12-17T04:46:21.177Z,101448.47
2022-12-17T04:49:05.991Z,101452.91
2022-12-17T04:51:50.867Z,101449.41
2022-12-17T04:54:35.546Z,101457.22
2022-12-17T04:57:20.349Z,101465.00
2022-12-17T05:00:05.838Z,101457.13
2022-12-17T05:02:51.124Z,101460.69
2022-12-17T05:05:36.361Z,101455.38
2022-12-17T05:08:21.046Z,101478.03
2022-12-17T05:11:05.886Z,101474.50
2022-12-17T05:13:50.487Z,101473.66
2022-12-17T05:16:35.249Z,101473.56
2022-12-17T05:19:20.109Z,101482.31
2022-12-17T05:22:04.806Z,101480.56
2022-12-17T05:24:49.671Z,101479.69
2022-12-17T05:27:34.607Z,101482.25
2022-12-17T05:30:19.516Z,101493.50
2022-12-17T05:33:04.304Z,101492.59
2022-12-17T05:35:49.086Z,101494.28
2022-12-17T05:38:33.774Z,101496.81
2022-12-17T05:41:19.534Z,101496.00
2022-12-17T05:44:04.149Z,101505.66
2022-12-17T05:46:49.109Z,101504.84
2022-12-17T05:49:34.070Z,101503.97
2022-12-17T05:52:18.837Z,101504.06
2022-12-17T05:55:03.639Z,101514.47
2022-12-17T05:57:53.083Z,101514.50
2022-12-17T06:00:41.253Z,101512.75
2022-12-17T06:03:27.690Z,101523.28
2022-12-17T06:06:15.509Z,101522.44
2022-12-17T06:09:00.758Z,101520.75
2022-12-17T06:11:45.710Z,101531.31
2022-12-17T06:14:30.468Z,101528.78
2022-12-17T06:17:15.202Z,101540.94
2022-12-17T06:20:00.042Z,101538.34
2022-12-17T06:22:44.688Z,101533.22
2022-12-17T06:25:29.350Z,101546.28
2022-12-17T06:28:21.039Z,101541.94
2022-12-17T06:31:10.451Z,101561.06
2022-12-17T06:33:55.450Z,101535.91
2022-12-17T06:36:40.621Z,101562.03
2022-12-17T06:39:25.438Z,101569.88
2022-12-17T06:42:10.038Z,101567.34
2022-12-17T06:44:55.379Z,101576.94
2022-12-17T06:47:40.311Z,101581.31
2022-12-17T06:50:26.087Z,101577.88
2022-12-17T06:53:21.488Z,101596.16
2022-12-17T06:56:06.193Z,101591.88
2022-12-17T06:58:51.529Z,101597.09
2022-12-17T07:01:36.971Z,101591.94
2022-12-17T07:04:22.819Z,101604.13
2022-12-17T07:07:07.424Z,101608.47
2022-12-17T07:09:52.740Z,101606.78
2022-12-17T07:12:37.386Z,101612.91
2022-12-17T07:15:22.662Z,101624.19
2022-12-17T07:18:19.233Z,101629.44
2022-12-17T07:21:05.513Z,101645.09
2022-12-17T07:23:50.779Z,101641.63
2022-12-17T07:26:36.033Z,101651.19
2022-12-17T07:29:21.451Z,101659.06
2022-12-17T07:32:06.276Z,101655.59
2022-12-17T07:34:51.466Z,101654.75
2022-12-17T07:37:36.242Z,101659.06
2022-12-17T07:40:21.541Z,101658.22
2022-12-17T07:43:06.216Z,101667.78
2022-12-17T07:45:50.954Z,101668.69
2022-12-17T07:48:36.105Z,101668.66
2022-12-17T07:51:20.877Z,101665.22
2022-12-17T07:54:05.634Z,101677.38
2022-12-17T07:56:50.374Z,101676.53
2022-12-17T07:59:35.303Z,101687.81
2022-12-17T08:08:52.173Z,101698.31
2022-12-17T08:11:36.846Z,101693.13
2022-12-17T08:14:21.558Z,101696.63
2022-12-17T08:17:06.381Z,101700.09
2022-12-17T08:19:51.193Z,101689.66
2022-12-17T08:22:35.819Z,101693.16
2022-12-17T08:25:20.809Z,101710.59
2022-12-17T08:28:11.118Z,101715.84
2022-12-17T08:31:07.367Z,101717.53
2022-12-17T08:33:52.608Z,101715.78
2022-12-17T08:36:37.801Z,101721.00
2022-12-17T08:39:22.579Z,101717.53
2022-12-17T08:42:07.263Z,101716.66
2022-12-17T08:44:52.111Z,101725.34
2022-12-17T08:47:36.805Z,101731.44
2022-12-17T08:50:23.158Z,101729.69
2022-12-17T08:53:07.776Z,101739.25
2022-12-17T08:55:52.550Z,101734.91
2022-12-17T08:58:38.521Z,101752.28
2022-12-17T09:01:23.770Z,101754.00
2022-12-17T09:04:08.928Z,101758.34
2022-12-17T09:06:53.616Z,101763.59
2022-12-17T09:09:38.289Z,101764.47
2022-12-17T09:12:23.522Z,101766.22
2022-12-17T09:15:08.281Z,101755.75
2022-12-17T09:17:52.932Z,101765.38
2022-12-17T09:20:37.601Z,101768.91
2022-12-17T09:23:22.509Z,101763.69
2022-12-17T09:26:14.926Z,101767.13
2022-12-17T09:28:59.648Z,101771.47
2022-12-17T09:31:45.057Z,101774.97
2022-12-17T09:34:30.182Z,101765.41
2022-12-17T09:37:14.925Z,101765.41
2022-12-17T09:39:59.989Z,101775.03
2022-12-17T09:42:58.268Z,101772.41
2022-12-17T09:45:54.522Z,101779.41
2022-12-17T09:48:57.279Z,101772.44
2022-12-17T09:51:47.275Z,101771.56
2022-12-17T09:54:41.838Z,101774.22
2022-12-17T09:57:32.781Z,101780.31
2022-12-17T10:00:17.504Z,101770.75
2022-12-17T10:03:02.984Z,101782.09
2022-12-17T10:05:50.970Z,101783.81
2022-12-17T10:08:39.694Z,101784.69
2022-12-17T10:11:38.921Z,101785.59
2022-12-17T10:14:35.779Z,101783.81
2022-12-17T10:17:20.601Z,101782.09
2022-12-17T10:20:12.508Z,101778.59
2022-12-17T10:23:09.006Z,101788.19
2022-12-17T10:25:54.305Z,101787.31
2022-12-17T10:28:42.091Z,101789.94
2022-12-17T10:31:36.702Z,101794.25
2022-12-17T10:34:26.804Z,101794.25
2022-12-17T10:37:12.558Z,101784.72
2022-12-17T10:40:00.085Z,101799.50
2022-12-17T10:42:46.316Z,101800.38
2022-12-17T10:45:51.307Z,101801.22
2022-12-17T10:48:42.212Z,101799.47
2022-12-17T10:51:36.591Z,101801.19
2022-12-17T10:54:36.620Z,101806.44
2022-12-17T10:57:21.836Z,101802.94
2022-12-17T11:00:07.075Z,101799.47
2022-12-17T11:02:52.185Z,101801.16
2022-12-17T11:05:48.796Z,101812.53
2022-12-17T11:08:35.556Z,101801.97
2022-12-17T11:11:28.411Z,101808.97
2022-12-17T11:14:15.635Z,101806.25
2022-12-17T11:17:08.470Z,101803.69
2022-12-17T11:20:05.992Z,101815.88
2022-12-17T11:23:00.920Z,101810.66
2022-12-17T11:26:04.662Z,101803.69
2022-12-17T11:28:53.032Z,101798.53
2022-12-17T11:31:53.042Z,101797.66
2022-12-17T11:35:03.445Z,101808.97
2022-12-17T11:38:07.457Z,101816.75
2022-12-17T11:41:00.875Z,101823.63
2022-12-17T11:44:29.975Z,101815.78
2022-12-17T11:47:58.927Z,101824.53
2022-12-17T11:50:50.342Z,101828.00
2022-12-17T11:54:00.786Z,101828.00
2022-12-17T11:56:51.164Z,101822.81
2022-12-17T11:59:54.269Z,101823.72
2022-12-17T12:02:58.894Z,101822.75
2022-12-17T12:05:57.008Z,101821.88
2022-12-17T12:08:46.637Z,101818.38
2022-12-17T12:11:43.462Z,101817.50
2022-12-17T12:14:37.606Z,101824.47
2022-12-17T12:17:49.689Z,101822.63
2022-12-17T12:21:04.027Z,101820.91
2022-12-17T12:24:21.476Z,101820.91
2022-12-17T12:27:09.088Z,101824.44
2022-12-17T12:30:09.244Z,101826.19
2022-12-17T12:33:11.653Z,101819.25
2022-12-17T12:35:57.437Z,101816.53
2022-12-17T12:38:55.828Z,101814.78
2022-12-17T12:41:40.410Z,101820.84
2022-12-17T12:44:39.895Z,101815.66
2022-12-17T12:47:36.358Z,101810.38
2022-12-17T12:50:33.752Z,101814.72
2022-12-17T12:53:19.084Z,101812.94
2022-12-17T12:56:03.892Z,101817.28
2022-12-17T12:58:53.365Z,101813.03
2022-12-17T13:01:39.469Z,101819.22
2022-12-17T13:04:47.452Z,101823.47
2022-12-17T13:07:39.842Z,101813.81
2022-12-17T13:10:26.149Z,101808.53
2022-12-17T13:12:52.620Z,101817.28
2022-12-17T13:15:33.242Z,101810.38
2022-12-17T13:18:27.754Z,101797.22
2022-12-17T13:21:00.553Z,101795.50
2022-12-17T13:23:31.841Z,101796.44
2022-12-17T13:26:29.903Z,101797.28
2022-12-17T13:28:56.263Z,101796.44
2022-12-17T13:31:27.267Z,101797.31
2022-12-17T13:34:03.495Z,101803.28
2022-12-17T13:36:43.318Z,101794.63
2022-12-17T13:39:28.017Z,101794.56
2022-12-17T13:41:57.464Z,101794.72
2022-12-17T13:44:27.230Z,101792.97
2022-12-17T13:46:55.058Z,101787.75
2022-12-17T13:49:26.986Z,101798.13
2022-12-17T13:52:16.458Z,101799.81
2022-12-17T13:54:42.769Z,101803.41
2022-12-17T13:57:24.813Z,101799.00
2022-12-17T14:00:00.067Z,101792.75
2022-12-17T14:02:31.628Z,101799.78
2022-12-17T14:05:04.164Z,101798.91
2022-12-17T14:07:37.890Z,101797.16
2022-12-17T14:10:05.361Z,101803.41
2022-12-17T14:12:34.808Z,101801.66
2022-12-17T14:15:05.057Z,101811.28
2022-12-17T14:17:43.679Z,101804.31
2022-12-17T14:20:14.371Z,101811.38
2022-12-17T14:22:51.122Z,101808.78
2022-12-17T14:25:20.309Z,101817.41
2022-12-17T14:27:54.221Z,101816.50
2022-12-17T14:30:22.054Z,101814.78
2022-12-17T14:32:48.539Z,101822.59
2022-12-17T14:35:27.849Z,101816.50
2022-12-17T14:37:54.606Z,101815.69
2022-12-17T14:40:23.401Z,101818.38
2022-12-17T14:42:50.436Z,101819.31
2022-12-17T14:45:16.720Z,101821.94
2022-12-17T14:48:00.583Z,101818.47
2022-12-17T14:50:32.072Z,101830.66
2022-12-17T14:53:01.211Z,101833.34
2022-12-17T14:55:55.559Z,101835.09
2022-12-17T14:58:24.594Z,101829.84
2022-12-17T15:01:08.850Z,101835.06
2022-12-17T15:03:41.334Z,101834.19
2022-12-17T15:06:11.569Z,101839.44
2022-12-17T15:08:42.998Z,101844.69
2022-12-17T15:11:13.622Z,101847.31
2022-12-17T15:13:40.423Z,101838.56
2022-12-17T15:16:07.338Z,101849.03
2022-12-17T15:18:34.176Z,101850.78
2022-12-17T15:21:02.193Z,101849.91
2022-12-17T15:23:28.844Z,101842.09
2022-12-17T15:25:55.378Z,101845.59
2022-12-17T15:28:22.264Z,101858.66
2022-12-17T15:30:49.328Z,101855.94
2022-12-17T15:33:16.382Z,101857.78
2022-12-17T15:35:43.083Z,101859.50
2022-12-17T15:38:11.580Z,101861.25
2022-12-17T15:40:38.208Z,101856.00
2022-12-17T15:43:13.531Z,101860.41
2022-12-17T15:45:41.037Z,101876.09
2022-12-17T15:48:07.548Z,101868.25
2022-12-17T15:50:34.267Z,101879.56
2022-12-17T15:53:00.721Z,101876.94
2022-12-17T15:55:27.295Z,101862.19
2022-12-17T15:57:53.665Z,101873.50
2022-12-17T16:00:20.285Z,101860.41
2022-12-17T16:02:48.564Z,101872.59
2022-12-17T16:05:15.279Z,101883.06
2022-12-17T16:07:43.353Z,101879.63
2022-12-17T16:10:11.653Z,101880.50
2022-12-17T16:12:38.224Z,101876.06
2022-12-17T16:15:06.406Z,101890.00
2022-12-17T16:17:32.774Z,101885.66
2022-12-17T16:20:00.501Z,101885.69
2022-12-17T16:22:27.606Z,101883.09
2022-12-17T16:24:54.191Z,101886.53
2022-12-17T16:27:20.628Z,101888.25
2022-12-17T16:29:48.078Z,101896.13
2022-12-17T16:32:17.621Z,101894.38
2022-12-17T16:34:44.759Z,101902.28
2022-12-17T16:37:11.397Z,101904.88
2022-12-17T16:39:37.839Z,101903.13
2022-12-17T16:42:04.303Z,101904.88
2022-12-17T16:44:30.616Z,101904.88
2022-12-17T16:46:57.051Z,101903.13
2022-12-17T16:49:26.229Z,101906.63
2022-12-17T16:51:54.934Z,101903.13
2022-12-17T16:54:26.888Z,101904.88
2022-12-17T16:56:54.202Z,101892.69
2022-12-17T16:59:21.843Z,101906.59
2022-12-17T17:01:50.358Z,101905.72
2022-12-17T17:04:19.402Z,101910.97
2022-12-17T17:06:51.795Z,101907.50
2022-12-17T17:09:21.770Z,101925.81
2022-12-17T17:11:51.697Z,101921.44
2022-12-17T17:14:18.714Z,101920.56
2022-12-17T17:16:45.059Z,101924.06
2022-12-17T17:19:11.443Z,101926.66
2022-12-17T17:21:40.365Z,101920.56
2022-12-17T17:24:08.124Z,101916.22
2022-12-17T17:26:34.717Z,101902.25
2022-12-17T17:29:01.582Z,101916.19
2022-12-17T17:32:01.110Z,101902.25
2022-12-17T17:34:15.235Z,101903.16
2022-12-17T17:36:42.302Z,101912.72
2022-12-17T17:39:08.667Z,101917.06
2022-12-17T17:41:35.691Z,101919.69
2022-12-17T17:44:07.420Z,101919.69
2022-12-17T17:46:34.938Z,101915.34
2022-12-17T17:49:03.030Z,101915.34
2022-12-17T17:52:07.743Z,101924.03
2022-12-17T17:54:21.623Z,101916.19
2022-12-17T17:56:47.930Z,101932.72
2022-12-17T17:59:19.124Z,101937.94
2022-12-17T18:01:49.308Z,101939.72
2022-12-17T18:04:18.714Z,101942.31
2022-12-17T18:07:09.083Z,101940.59
2022-12-17T18:09:32.642Z,101939.72
2022-12-17T18:12:18.951Z,101944.06
2022-12-17T18:15:11.895Z,101931.84
2022-12-17T18:17:31.662Z,101939.69
2022-12-17T18:19:58.083Z,101945.81
2022-12-17T18:22:24.614Z,101939.69
2022-12-17T18:24:51.037Z,101948.41
2022-12-17T18:27:17.402Z,101948.41
2022-12-17T18:29:43.722Z,101945.78
2022-12-17T18:32:10.379Z,101948.41
2022-12-17T18:34:37.105Z,101949.28
2022-12-17T18:37:05.150Z,101944.06
2022-12-17T18:39:31.594Z,101956.28
2022-12-17T18:42:16.494Z,101951.91
2022-12-17T18:44:42.970Z,101963.22
2022-12-17T18:47:10.588Z,101969.31
2022-12-17T18:49:37.462Z,101965.84
2022-12-17T18:52:03.827Z,101969.31
2022-12-17T18:54:31.164Z,101967.59
2022-12-17T18:57:02.123Z,101971.06
2022-12-17T18:59:30.483Z,101965.81
2022-12-17T19:01:58.019Z,101974.53
2022-12-17T19:04:25.798Z,101966.72
2022-12-17T19:06:53.591Z,101980.66
2022-12-17T19:09:23.267Z,101971.97
2022-12-17T19:11:51.453Z,101971.03
2022-12-17T19:14:18.278Z,101985.84
2022-12-17T19:16:45.118Z,101989.31
2022-12-17T19:19:12.697Z,101986.72
2022-12-17T19:21:39.105Z,101986.69
2022-12-17T19:24:08.479Z,101976.22
2022-12-17T19:26:36.125Z,101969.22
2022-12-17T19:29:03.203Z,101975.31
2022-12-17T19:31:31.927Z,101970.09
2022-12-17T19:34:00.276Z,101976.22
2022-12-17T19:36:28.858Z,101972.69
2022-12-17T19:38:58.428Z,101975.31
2022-12-17T19:41:26.432Z,101974.41
2022-12-17T19:43:58.818Z,101984.03
2022-12-17T19:46:25.927Z,101982.31
2022-12-17T19:48:53.033Z,101996.31
2022-12-17T19:51:21.782Z,101988.44
2022-12-17T19:53:49.119Z,101992.78
2022-12-17T19:56:16.532Z,101984.06
2022-12-17T19:58:43.935Z,101984.06
2022-12-17T20:01:13.526Z,101976.25
2022-12-17T20:03:41.748Z,101990.16
2022-12-17T20:06:09.550Z,101999.72
2022-12-17T20:08:36.516Z,101998.94
2022-12-17T20:11:25.312Z,101991.03
2022-12-17T20:13:56.166Z,101996.22
2022-12-17T20:16:25.515Z,102004.03
2022-12-17T20:18:51.997Z,101995.31
2022-12-17T20:21:19.213Z,102004.09
2022-12-17T20:23:47.549Z,102001.56
2022-12-17T20:26:14.306Z,102004.13
2022-12-17T20:28:41.424Z,102014.59
2022-12-17T20:31:08.496Z,102026.81
2022-12-17T20:33:34.835Z,102021.56
2022-12-17T20:36:10.291Z,102021.59
2022-12-17T20:38:37.615Z,102026.78
2022-12-17T20:41:11.005Z,102018.03
2022-12-17T20:43:38.503Z,102019.78
2022-12-17T20:46:05.456Z,102021.50
2022-12-17T20:48:32.233Z,102028.41
2022-12-17T20:50:58.624Z,102022.25
2022-12-17T20:53:25.165Z,102027.41
2022-12-17T20:56:05.574Z,102010.78
2022-12-17T20:58:31.989Z,102004.72
2022-12-17T21:01:07.252Z,102006.53
2022-12-17T21:03:34.492Z,102003.00
2022-12-17T21:06:11.007Z,102004.66
2022-12-17T21:08:40.373Z,102005.47
2022-12-17T21:11:13.131Z,102016.00
2022-12-17T21:13:39.514Z,102018.63
2022-12-17T21:16:11.241Z,102033.34
2022-12-17T21:18:38.955Z,102034.22
2022-12-17T21:21:18.490Z,102033.38
2022-12-17T21:23:46.633Z,102037.75
2022-12-17T21:26:16.290Z,102048.97
2022-12-17T21:28:47.593Z,102050.75
2022-12-17T21:31:22.844Z,102043.81
2022-12-17T21:33:51.781Z,102034.28
2022-12-17T21:36:20.142Z,102037.00
2022-12-17T21:38:47.235Z,102043.91
2022-12-17T21:41:21.940Z,102046.50
2022-12-17T21:43:52.676Z,102057.72
2022-12-17T21:46:19.264Z,102046.50
2022-12-17T21:48:46.252Z,102038.63
2022-12-17T21:51:13.665Z,102052.50
2022-12-17T21:53:43.373Z,102042.97
2022-12-17T21:56:12.483Z,102037.75
2022-12-17T21:58:40.406Z,102035.09
2022-12-17T22:01:21.669Z,102040.25
2022-12-17T22:03:53.473Z,102042.84
2022-12-17T22:06:24.473Z,102043.69
2022-12-17T22:08:59.530Z,102029.75
2022-12-17T22:11:30.727Z,102048.00
2022-12-17T22:14:08.892Z,102035.78
2022-12-17T22:16:42.284Z,102042.81
2022-12-17T22:19:11.010Z,102035.72
2022-12-17T22:21:39.536Z,102049.69
2022-12-17T22:24:06.835Z,102040.06
2022-12-17T22:26:36.383Z,102036.66
2022-12-17T22:29:03.159Z,102035.03
2022-12-17T22:31:48.087Z,102048.81
2022-12-17T22:35:09.275Z,102043.63
2022-12-17T22:39:57.388Z,102038.41
2022-12-17T22:44:35.298Z,102051.38
2022-12-17T22:44:41.940Z,102059.13
2022-12-17T22:45:41.113Z,102045.28
2022-12-17T22:48:09.464Z,102043.47
2022-12-17T22:50:45.672Z,102042.50
2022-12-17T22:53:21.539Z,102056.47
2022-12-17T22:55:48.941Z,102049.47
2022-12-17T22:58:15.715Z,102054.72
2022-12-17T23:00:42.274Z,102054.72
2022-12-17T23:03:08.816Z,102049.63
2022-12-17T23:05:35.434Z,102050.44
2022-12-17T23:08:01.845Z,102053.81
2022-12-17T23:10:28.878Z,102047.72
2022-12-17T23:12:55.720Z,102061.72
2022-12-17T23:15:26.154Z,102052.97
2022-12-17T23:17:54.311Z,102046.94
2022-12-17T23:20:20.659Z,102055.66
2022-12-17T23:22:47.406Z,102062.50
2022-12-17T23:25:14.373Z,102056.34
2022-12-17T23:27:45.947Z,102058.09
2022-12-17T23:30:14.843Z,102039.75
2022-12-17T23:32:41.332Z,102045.91
2022-12-17T23:35:08.477Z,102050.28
2022-12-17T23:37:39.716Z,102039.84
2022-12-17T23:40:11.365Z,102049.41
2022-12-17T23:42:37.908Z,102046.78
2022-12-17T23:45:06.212Z,102048.50
2022-12-17T23:47:32.604Z,102050.34
2022-12-17T23:49:58.940Z,102059.81
2022-12-17T23:52:25.383Z,102057.28
2022-12-17T23:54:51.723Z,102058.97
2022-12-17T23:57:18.090Z,102055.50
2022-12-17T23:59:44.439Z,102053.66
